Latest Observation

113 Stations

10 Minute Data
as of 9/1/26 11:12 PM PDT
Station Date Time Temp (°F) RH (%) Dew Pt (°F) Wind Spd (mph) Wind Dir (°) Wind Gust (mph) Wind Gst Dir (°) Latest Rain (In) Soil Moist (%) Soil Temp (°F) Daily Rain (In) Daily Min Temp (°F) Daily Max Temp (°F) Daily Max Wind (mph)
Hobart Mills 9/1/26 2310 46.6   8.9 65   10 35.5   4.1 5.8   5.8 SW | 229 13.8   12.7 WSW | 240 0.00 7.6   0.1 67.8   1.3 0.00 46.5   6.4 66.6   10.4 25.8   4.1
Prosser Dam 9/1/26 2310 45.3   9.6 66   7 34.7   6.1 1.7   2.6 S | 176 4.0   2.5 S | 185 0.00 5.4   0.0 64.2   0.6 0.00 45.1   8.3 69.0   8.4 31.2   7.9
West Incline Village 9/1/26 2310 42.5   12.6 59   15 29.1   4.2 1.7   0.5 NW | 304 5.3   0.0 WNW | 283 0.00 11.8   0.1 58.6   0.5 0.00 42.2   10.9 61.3   8.9 21.2   5.8
Incline Village (Fairview Blvd) 9/1/26 2310 45.7   11.0 54   11 30.2   4.6 3.8   3.7 WSW | 257 11.2   8.6 WSW | 241 0.00 7.6   0.1 71.9   0.2 0.00 45.5   8.6 64.0   8.8 17.8   4.1
Incline Village (Diamond Peak) 9/1/26 2310 42.5   11.2 61   14 30.2   4.1 4.7   2.8 WNW | 298 15.2   10.7 W | 278 0.00 2.5   0.0 61.4   0.8 0.00 42.5   11.1 60.4   7.5 15.2   7.2
Incline Village (Mill Creek) 5/30/36 1610 74.5 37 46.5 0.5 SW | 236 1.7 SSW | 213 0.00 0.0 0.0 0.00 74.4 74.5 1.7
Incline Village (Lakeshore Blvd) 9/1/26 2310 50.5   3.7 63   2 38.3   2.9 2.8   2.2 WSW | 257 9.2   6.7 SW | 216 0.00 19.3   1.4 61.2   1.3 0.00 46.6   0.2 63.8   8.2 15.6   3.7
Glenbrook 9/1/26 2310 54.7   2.0 40   21 30.8   8.9 13.6   12.8 WSW | 245 28.1   24.7 WSW | 256 0.00 43.0   0.1 59.2   0.4 0.00 50.6   1.4 64.8   9.0 29.2   17.6
Zephyr Cove 9/1/26 2310 48.6   9.0 46   1 28.6   7.5 1.8   1.7 S | 172 6.5   5.3 E | 84 0.00 2.8   0.0 66.7   3.1 0.00 48.0   3.9 68.5   4.9 12.7   2.1
Kingsbury Grade 9/1/26 2310 44.9   10.1 58   10 31.1   4.6 0.8   0.7 W | 273 6.1   1.6 NNW | 334 0.00 2.4   0.0 69.9   1.2 0.00 44.7   3.9 66.5   7.9 15.4   3.5
South Daggett Pass (Ridge) 9/1/26 2310 42.7   10.4 60   12 29.8   4.3 2.7   1.2 W | 281 7.3   1.6 W | 270 0.00 2.2   0.0 64.2   0.2 0.00 41.6   11.0 63.0   5.8 20.7   0.8
Palomino Valley 9/1/26 2310 59.7   5.9 32   1 29.4   5.9 8.5   5.7 W | 270 13.5   8.9 W | 271 0.00 6.7   0.1 79.9   0.6 0.00 53.3   6.1 79.4   7.4 42.6   14.3
East Cold Springs 9/1/26 2310 51.1   13.4 48   12 32.1   4.8 7.9   0.4 WSW | 237 15.0   2.0 WSW | 238 0.00 1.6   0.1 73.0   0.2 0.00 50.9   5.2 72.2   10.6 28.0   1.7
Peavine 8/22/26 1700 81.6   1.5 27   0 44.0   1.5 22.7   10.4 SW | 225 48.4   26.2 SW | 220 0.00 - 53.4   0.0 0.00 69.4   2.1 87.6   2.1 48.4   26.2
West Verdi Peak 9/2/26 0010 45.6   12.6 60   14 32.6   4.9 5.0   1.8 S | 169 11.2   3.7 SSE | 147 0.00 6.6   0.0 70.9   0.8 0.00 45.3   6.1 68.6   9.6 26.4   8.6
West Verdi 9/1/26 2310 52.6   13.4 50   15 34.7   2.9 9.6   7.2 SW | 233 17.1   10.6 WSW | 238 0.00 6.3   0.0 82.5   0.7 0.00 52.2   2.0 73.4   9.4 35.4   9.4
South Verdi 9/1/26 2310 51.9   11.5 46   6 31.6   7.1 17.9   6.8 SW | 233 29.1   3.0 SW | 232 0.00 10.7   0.2 74.9   2.7 0.00 51.6   2.0 70.1   9.3 39.0   2.5
Northwest Reno 9/1/26 2310 53.9   13.2 45   11 32.8   4.8 35.0   8.2 W | 279 40.7   3.9 W | 277 0.00 25.3   0.0 79.6   1.4 0.00 53.6   5.8 73.3   10.1 56.5   10.7
North Lawton 8/28/26 1620 63.8   17.1 74   52 55.4   16.5 1.5   11.6 ESE | 121 5.1   19.0 SE | 124 0.00 - 78.2   0.0 0.05 59.2   7.5 71.9   13.3 20.4   4.6
West Reno (Mogul) 9/1/26 2310 51.9   13.5 50   12 34.0   5.0 1.3   2.1 WNW | 298 7.9   5.2 NW | 318 0.00 19.6   0.0 79.4   0.2 0.00 51.7   2.8 73.8   8.1 31.0   0.4
Caughlin (Hunter Lake Trail) 9/1/26 2310 52.7   12.2 47   12 33.0   4.0 19.8   15.2 W | 271 30.7   24.0 WNW | 301 0.00 16.6   0.1 75.7   0.4 0.00 51.9   7.2 74.0   8.7 38.8   4.4
ArrowCreek 9/1/26 2310 54.3   12.9 41   5 31.1   8.3 2.7   0.5 ESE | 106 8.8   4.3 E | 96 0.00 - 32.0   0.0 0.00 54.0   1.2 74.6   7.8 31.9   7.1
Tracy 9/1/26 2310 63.1   9.3 27   1 28.9   8.9 6.9   0.8 WNW | 291 14.7   2.2 W | 276 0.00 16.0   0.1 81.5   1.1 0.00 61.4   3.8 80.1   8.6 36.4   7.2
Virginia Highlands 9/1/26 2310 52.4   11.1 46   10 32.1   4.1 3.0   0.1 WSW | 256 6.6   1.6 W | 260 0.00 8.0   0.0 74.7   0.1 0.00 52.1   7.4 70.4   8.4 26.0   7.2
Virginia City 9/1/26 2310 51.7   11.5 45   10 31.3   4.0 6.3   0.3 WSW | 250 14.7   2.0 WSW | 245 0.00 4.9   0.0 76.1   1.1 0.00 51.5   8.7 70.3   6.0 28.3   3.2
Six Mile Canyon 9/1/26 2310 62.4   8.9 22   6 23.1   13.7 9.6   4.3 WNW | 296 15.5   8.6 NW | 306 0.00 12.6   0.1 80.3   1.7 0.00 61.6   4.2 80.7   5.5 28.8   9.1
Mt Rose Highway 9/1/26 2310 46.8   11.8 42   7 24.9   6.3 4.4   1.8 SSW | 194 13.7   1.9 S | 181 0.00 7.4   0.0 62.4   0.2 0.00 46.6   9.4 64.0   9.5 28.0   0.5
Pleasant Valley 9/1/26 2310 57.4   10.4 38   3 31.8   7.3 13.2   11.5 SW | 236 20.2   16.0 SW | 226 0.00 2.4   0.0 80.4   0.4 0.00 51.3   0.6 75.2   8.4 34.3   11.6
New Washoe City 9/1/26 2310 55.1   12.5 46   12 34.7   3.6 9.9   0.6 WSW | 237 16.0   0.2 SW | 232 0.00 3.5   0.1 74.1   0.0 0.00 54.9   2.9 73.4   8.5 30.7   7.0
Franktown Creek 9/1/26 2310 56.1   13.6 43   17 33.8   0.4 5.6   0.9 SSW | 206 21.1   2.1 S | 183 0.00 7.1   0.1 73.2   0.2 0.00 55.9   6.2 73.5   7.5 27.2   5.7
Musgrove Creek 9/1/26 2310 53.3   10.6 51   8 35.5   5.6 4.8   2.9 NNW | 329 12.8   3.5 E | 90 0.00 10.2   0.1 60.8   0.1 0.00 52.5   5.2 70.8   6.9 20.9   1.9
East Carson 11/23/24 0110 28.6   28.4 - - 4.7   11.0 SW | 220 14.7   10.1 SW | 219 0.02 - 50.9   0.1 0.02 -25.9   79.1 42.9   14.6 16.0   10.7
Kings Canyon 9/1/26 2310 58.0   11.7 30   9 26.5   0.8 7.2   1.4 SW | 218 12.4   0.5 SW | 217 0.00 4.2   0.0 71.3   0.8 0.00 57.4   6.4 73.5   6.9 31.7   1.1
Carson City (Voltaire Canyon) 9/1/26 2310 57.9   11.2 34   7 29.6   4.2 11.4   1.8 SW | 231 16.5   0.0 SW | 226 0.00 2.8   0.0 79.2   0.1 0.00 57.3   2.2 75.9   6.4 32.0   0.5
Jacks Valley 9/1/26 2310 57.3   10.9 32   8 28.0   2.9 13.9   7.8 W | 276 22.7   11.1 W | 274 0.00 4.7   0.0 80.4   2.5 0.00 56.8   2.8 74.8   6.0 27.3   2.1
Genoa 9/1/26 2310 58.9   10.7 35   9 31.5   1.7 1.7   0.3 WNW | 286 7.1   2.4 W | 259 0.00 2.4   0.0 70.8   2.5 0.00 58.7   4.2 76.5   6.8 20.0   1.2
South Genoa (Walleys Hot Springs) 9/1/26 2310 62.4   2.9 24   14 25.5   13.8 7.9   5.5 SW | 226 16.6   10.6 SW | 228 0.00 4.4   0.8 74.9   0.4 0.00 56.5   10.7 77.7   5.8 30.9   1.6
SW Gardnerville (HWY 88) 9/1/26 2310 60.4   6.0 24   9 23.2   13.1 14.6   7.5 SSE | 154 28.7   17.1 SSE | 167 0.00 2.8   0.0 71.0   0.0 0.00 58.9   12.9 75.8   5.4 31.9   5.5
Sheridan 9/1/26 2310 57.8   10.2 28   2 24.8   6.7 4.9   0.9 W | 264 7.7   3.2 WNW | 298 0.00 1.1   0.0 76.0   1.3 0.00 55.9   5.2 76.2   7.6 31.7   1.2
Ruhenstroth 9/1/26 2310 58.2   10.4 31   3 27.7   6.8 9.2   7.2 SSW | 206 18.8   10.8 SW | 219 0.00 7.0   0.1 78.4   3.2 0.00 58.0   8.2 75.3   8.7 31.4   4.6
Double Spring 9/1/26 2310 57.2   4.2 18   25 14.6   24.3 10.1   5.4 SSE | 150 15.4   2.4 SSE | 161 0.00 25.7   0.3 75.3   3.7 0.00 50.9   5.2 71.4   7.3 23.7   0.6
North Topaz Lake 9/1/26 2310 60.9   7.7 16   11 14.3   18.9 13.6   4.9 SSW | 199 29.9   15.2 S | 185 0.00 7.6   0.0 73.8   2.6 0.00 60.5   1.6 75.6   6.3 30.9   7.3
Wild Oat Mountain 9/1/26 2310 58.6   5.2 18   20 14.7   22.5 18.1   12.9 SW | 220 29.3   13.8 SW | 235 0.00 5.8   0.2 74.4   3.1 0.00 58.0   1.2 72.9   8.8 38.9   7.8
Smith Valley 9/1/26 2310 64.7   4.7 18   15 20.6   18.3 8.5   7.4 SW | 223 14.5   11.4 SW | 234 0.00 2.9   0.1 80.8   1.4 0.00 59.8   4.4 81.0   5.5 25.3   1.4
Pine Grove Mountain 9/1/26 2310 50.5   8.6 20   16 10.6   21.6 10.8   0.0 ESE | 118 17.3   2.1 ESE | 108 0.00 7.1   0.3 69.6   1.0 0.00 50.2   5.2 68.8   2.6 26.0   2.7
Paradise Hill 9/1/26 2310 67.1   1.3 17   7 21.1   7.6 17.3   10.8 WNW | 298 25.6   17.4 WNW | 288 0.00 10.2   0.1 78.4   1.6 0.00 55.3   11.5 80.4   7.7 27.0   8.2
Winnemucca 9/1/26 2310 64.4   6.2 18   6 19.7   12.1 8.0   0.1 SSW | 194 13.4   2.0 S | 180 0.00 5.8   0.0 77.8   0.2 0.00 64.2   14.8 81.7   6.2 23.6   0.1
NE Elko 9/1/26 2310 73.7   14.2 13   30 20.6   16.6 18.4   14.6 S | 173 25.2   19.4 S | 170 0.00 5.8   0.0 75.1   0.1 0.00 46.2   7.3 82.4   2.2 35.6   4.3
North Elko 9/1/26 2310 65.6   0.1 22   14 25.5   12.6 1.4   1.7 SW | 226 2.9   2.0 SSW | 201 0.00 24.9   0.0 74.7   0.8 0.00 57.5   6.5 80.9   2.2 31.7   4.5
South Elko 9/1/26 2310 82.8   18.4 27   11 45.0   6.4 9.4   0.6 S | 186 13.7   0.1 S | 189 0.00 13.8   0.0 72.8   0.3 0.00 55.7   1.1 - 35.2   10.3
Lamoille 9/1/26 2310 70.9   8.5 16   26 23.0   16.5 13.5   8.2 S | 181 20.9   14.4 SSE | 164 0.00 6.4   0.0 69.5   0.1 0.00 51.7   3.3 76.7   3.0 34.5   5.8
Reid Gardner Sub 9/1/26 2310 83.8   3.9 17   19 34.6   22.8 8.0   2.9 S | 183 13.3   4.2 S | 181 0.00 26.6   0.2 91.1   0.9 0.00 71.9   2.6 99.3   1.1 30.6   0.9
Corn Creek 9/1/26 2310 80.7   2.0 13   14 26.1   19.3 17.8   13.5 ESE | 121 25.7   18.3 ESE | 116 0.00 3.1   0.1 89.7   3.7 0.00 71.9   1.9 91.8   3.3 40.0   6.6
Lucky Strike 9/1/26 2310 68.6   5.2 15   8 19.2   14.2 14.7   4.8 SSE | 167 21.0   6.0 SSE | 165 0.00 3.2   0.0 85.5   1.3 0.00 64.8   4.2 79.6   2.7 33.8   4.1
Lower Angel Peak 9/1/26 2310 64.8   2.7 20   9 22.9   11.8 7.0   0.2 SE | 128 13.2   0.5 SE | 139 0.00 3.2   0.1 76.0   0.7 0.00 60.0   1.8 74.8   3.0 28.4   4.6
Angel Peak 9/1/26 2310 54.8   0.7 26   14 20.5   10.7 10.6   7.6 SSW | 204 26.0   2.5 S | 172 0.00 2.6   0.1 66.6   1.7 0.00 51.2   3.7 61.4   4.8 53.2   17.0
Upper Kyle Canyon 9/1/26 2310 58.1   1.6 21   11 18.7   11.0 6.9   5.9 WNW | 300 16.4   12.5 WNW | 286 0.00 7.8   0.1 76.7   0.4 0.00 55.8   2.8 67.8   1.9 47.8   13.8
Mt Charleston 9/1/26 2310 57.7   0.6 21   10 18.4   10.0 4.7   2.5 WNW | 300 14.9   9.9 NW | 310 0.00 13.3   0.1 69.0   0.5 0.00 54.4   3.3 67.6   2.7 30.3   9.7
Mid Kyle Canyon 9/1/26 2310 64.8   0.4 17   10 19.4   11.5 7.9   1.6 SW | 223 17.4   8.0 SW | 232 0.00 5.9   0.0 76.9   0.5 0.00 59.6   0.9 73.6   3.8 33.0   4.6
Blue Diamond 9/1/26 2310 78.5   4.0 13   3 23.5   8.6 16.3   10.1 WNW | 290 27.2   15.9 WNW | 294 0.00 1.3   0.0 89.9   1.1 0.00 71.5   1.4 88.4   4.9 29.9   5.0
Artesian Sub 9/1/26 2310 88.2   3.4 11   9 26.6   17.8 5.2   0.9 SW | 220 9.7   3.2 SW | 225 0.00 11.7   0.0 93.6   0.4 0.00 78.4   2.7 99.7   3.4 22.5   3.3
North Henderson 9/1/26 2310 88.5   0.0 13   25 30.8   28.9 8.4   8.1 SW | 231 14.2   10.3 SW | 233 0.00 10.5   0.1 97.6   0.8 0.00 81.0   3.4 99.4   3.1 29.2   8.0
Sandy Valley 9/1/26 2310 77.5   4.7 17   3 28.8   7.9 2.8   0.6 WSW | 243 5.1   2.0 WSW | 242 0.00 8.3   0.2 93.4   2.2 0.00 73.3   0.9 90.9   4.3 23.5   2.5
Searchlight 9/1/26 2310 74.0   0.8 23   34 34.2   24.5 1.8   6.1 NE | 43 4.6   7.2 NNE | 31 0.00 6.0   0.1 90.6   1.0 0.00 68.0   2.9 89.9   2.3 30.6   3.7
Laughlin 9/1/26 2310 94.0   3.9 24   22 51.9   14.4 10.6   5.5 S | 187 15.8   7.3 S | 180 0.00 4.6   0.0 101.8   1.0 0.00 86.0   3.6 104.4   0.7 30.6   12.3
31Mission Hills 9/1/26 2310 84.9   1.1 12   26 26.0   29.5 11.7   1.1 SW | 231 16.5   0.7 WSW | 237 0.00 7.2   0.3 92.2   0.9 0.00 76.8   4.1 95.9   1.0 43.8   5.3
32 Enterprise Sierra Cliffs 9/1/26 2310 79.5   4.0 11   3 20.6   8.8 12.7   1.3 SSW | 212 16.4   2.4 SW | 214 0.00 1.4   0.1 89.6   3.4 0.00 76.3   1.7 90.3   4.5 30.1   0.2
29 Calico Basin 9/1/26 2310 77.4   4.3 10   4 17.8   10.5 14.2   0.2 SW | 217 24.0   2.7 SW | 233 0.00 2.6   0.2 87.6   2.8 0.00 72.1   3.3 86.4   5.8 39.4   9.6
28 Indian Springs 9/1/26 2310 79.8   0.6 10   10 19.4   16.2 17.3   14.9 WSW | 244 23.6   20.0 WSW | 243 0.00 4.7   0.1 90.1   2.3 0.00 69.4   0.7 91.8   3.0 37.0   4.5
30 Jean 9/1/26 2310 78.5   1.7 12   6 21.6   11.2 5.1   2.0 SSW | 204 9.1   3.7 SSW | 210 0.00 5.3   0.2 90.0   2.3 0.00 64.3   6.7 91.0   4.4 27.4   6.1
VC Highlands NW 9/1/26 2310 49.9   12.0 47   14 30.6   2.2 3.5   1.0 SSE | 153 6.8   5.2 SE | 139 0.00 1.6   0.1 68.8   3.5 0.00 49.7   9.6 69.9   8.2 19.5   2.4
Glenbrook-Spooner Summit 9/1/26 2310 47.3   7.3 39   9 23.7   11.5 5.4   2.5 WSW | 255 17.1   9.1 SW | 230 0.00 7.8   0.2 69.8   2.0 0.00 45.5   2.2 62.8   7.0 24.3   1.5
Hobo Hot Springs 9/1/26 2310 55.2   10.1 31   2 25.1   10.5 1.9   0.0 E | 95 4.1   0.7 ESE | 112 0.00 1.1   0.0 73.6   0.9 0.00 54.1   9.6 77.7   6.1 25.0   0.4
Jack Valley Ranch 2 9/1/26 2310 57.0   12.0 31   13 26.8   2.7 9.4   3.5 W | 270 25.7   10.4 WSW | 244 0.00 2.2   0.0 77.9   0.8 0.00 56.7   2.1 75.4   5.0 35.0   9.7
Genoa North 2 9/1/26 2310 58.4   10.2 31   6 27.8   3.1 8.0   3.0 SW | 235 20.5   5.1 WSW | 244 0.00 0.9   0.0 80.2   1.3 0.00 58.1   4.2 77.0   5.6 27.2   2.7
Mottsville 2 9/1/26 2310 60.3   6.5 23   0 22.4   5.6 6.0   3.8 WNW | 289 11.2   6.1 WNW | 283 0.00 1.3   0.1 76.0   0.6 0.00 57.0   9.5 76.9   5.4 22.1   8.4
Kingsbury Village 3 9/1/26 2310 41.6   9.9 58   13 28.1   2.8 1.2   1.6 W | 276 5.1   0.1 SSW | 194 0.00 3.2   0.0 65.4   1.2 0.00 41.2   8.1 63.4   6.0 18.3   2.6
Kingsbury-Benjamin Dr 2 9/1/26 2310 43.3   11.3 57   16 29.0   2.3 1.3   0.6 W | 264 6.1   0.4 SW | 226 0.00 3.2   0.2 73.2   2.4 0.00 43.2   9.7 64.7   4.9 18.6   1.5
Smith Valley-Wellington 9/1/26 2310 61.4   10.1 20   4 20.5   12.5 6.2   2.6 SW | 227 9.9   4.0 SW | 234 0.00 3.7   0.0 83.7   0.3 0.00 60.9   5.4 80.6   6.1 29.3   6.1
Sheridan South 2 9/1/26 2310 60.2   5.2 23   8 21.7   12.1 9.3   5.8 SE | 130 21.5   11.8 SE | 144 0.00 0.6   0.0 77.3   1.8 0.00 56.3   9.3 75.2   7.9 33.9   4.2
Silver Springs 9/1/26 2310 64.7   10.7 19   4 21.7   13.1 31.4   12.6 W | 263 44.8   18.6 WSW | 255 0.00 5.1   0.1 83.8   1.5 0.00 64.5   10.3 82.5   5.8 44.8   12.9
Fernley 9/1/26 2310 64.3   8.3 25   1 27.3   7.8 19.3   13.0 W | 278 28.2   17.0 WNW | 285 0.00 3.2   0.1 81.5   3.2 0.00 61.2   6.3 82.4   6.0 42.0   19.5
Spanish Springs 9/1/26 2310 58.1   11.7 35   6 30.9   5.6 16.0   13.1 WNW | 284 26.2   16.6 W | 274 0.00 10.8   0.1 82.3   1.1 0.00 53.3   5.5 78.8   7.9 31.6   5.7
Suttcliffe South 2 9/1/26 2310 61.4   9.8 26   2 26.2   6.5 19.8   16.3 WSW | 255 30.6   23.7 W | 269 0.00 4.5   0.1 79.4   3.2 0.00 59.0   7.5 81.1   3.9 43.8   19.9
Lemmon Valley North 9/1/26 2310 54.0   12.2 41   12 30.7   2.5 13.2   5.0 S | 190 21.4   6.5 SSW | 200 0.00 2.1   0.0 74.2   0.4 0.00 53.6   14.7 74.1   7.6 33.2   2.2
Lemmon Valley NW 3 9/1/26 2310 55.1   11.3 40   9 31.2   4.0 13.4   4.6 WNW | 301 19.9   3.2 WNW | 303 0.00 1.4   0.0 79.9   2.7 0.00 54.7   8.7 75.0   9.2 33.3   8.1
VC Highlands North 9/1/26 2310 52.3   11.8 43   12 30.3   2.4 3.0   2.8 S | 184 6.2   4.7 S | 184 0.00 4.9   0.3 72.0   5.9 0.00 52.0   5.9 70.8   8.0 25.5   6.2
Upper Voltaire Cyn 9/1/26 2310 53.9   11.6 34   10 26.4   1.2 7.4   2.0 SW | 218 19.1   2.9 SSW | 208 0.00 1.2   0.0 75.9   1.8 0.00 53.7   4.8 71.2   7.3 32.8   4.3
Yerington NW 9/1/26 2310 63.2   4.4 23   14 24.5   16.0 18.0   14.5 W | 268 24.3   18.6 W | 279 0.00 7.3   0.1 78.6   1.8 0.00 57.4   11.0 79.4   6.5 39.7   15.4
Spanish Springs SW 9/1/26 2310 56.4   11.7 39   8 31.5   4.6 13.6   7.8 WNW | 291 21.7   10.8 WNW | 296 0.00 1.6   0.1 81.3   2.8 0.00 55.6   3.4 77.6   7.6 31.4   4.1
Cosgrave 2 8/27/26 0750 62.9   4.1 34   3 33.8   1.4 2.6   0.5 WSW | 246 4.1   1.0 W | 267 0.00 3.8   0.1 77.4   2.9 0.00 62.7   3.3 77.4   3.5 11.2   3.9
Winnemucca-Grass Valley 2 9/1/26 2310 66.0   6.4 16   4 18.7   10.8 5.0   4.4 WSW | 244 11.6   4.1 WSW | 257 0.00 8.1   0.1 71.5   0.6 0.00 51.8   12.1 80.5   5.8 21.9   6.2
Winnemucca-Dutch Flat Rd 9/1/26 2310 65.8   4.2 15   6 16.9   10.9 15.6   8.2 WSW | 253 25.5   16.4 WSW | 249 0.00 6.4   0.1 77.5   0.3 0.00 60.0   8.6 80.4   7.3 30.3   9.7
Paradise Valley 2 9/1/26 2310 62.0   2.0 23   7 23.7   5.0 5.1   1.6 NE | 38 8.8   3.4 ENE | 68 0.00 13.1   0.0 77.7   0.9 0.00 52.9   12.6 81.0   5.7 20.4   1.0
Golconda 2 9/1/26 2310 67.1   3.6 15   8 17.3   13.4 21.5   20.7 W | 270 34.4   30.1 WSW | 257 0.00 2.1   0.0 81.7   0.7 0.00 60.4   11.7 83.1   4.9 37.9   19.3
Battle Mountain - South 9/1/26 2310 63.0   4.4 22   6 23.8   9.1 1.6   0.5 SSW | 192 4.0   0.0 SE | 141 0.00 9.2   0.1 78.1   0.0 0.00 57.9   18.4 83.7   5.3 26.8   9.9
Geiger Summit 9/1/26 2310 46.8   12.5 100   0 46.8   12.5 1.1   1.7 S | 189 4.0   3.0 E | 87 0.00 6.5   0.0 67.4   4.0 0.00 46.5   10.4 67.4   7.5 26.6   4.7
Combs Canyon 3 9/1/26 2310 60.1   10.1 24   5 23.2   2.6 14.2   8.2 WSW | 238 25.1   9.9 WSW | 247 0.00 1.0   0.0 77.9   1.8 0.00 59.1   3.9 75.9   6.2 31.8   3.2
Clear Creek 9/1/26 2310 54.2   12.1 35   11 27.0   1.2 8.1   2.3 SW | 232 15.0   6.8 SSW | 205 0.00 3.5   0.0 73.9   1.7 0.00 54.0   2.1 71.2   6.2 33.5   0.1
Eastlake 2 9/1/26 2310 58.1   10.2 30   3 27.1   6.5 7.5   2.8 SSW | 208 16.3   0.4 SSE | 161 0.00 3.5   0.0 75.0   1.2 0.00 56.1   8.4 74.4   7.0 35.5   3.7
Lovelock-Colado 2 9/1/26 2310 62.6   7.3 19   4 19.4   10.3 2.7   1.1 NE | 40 5.1   1.1 NE | 50 0.00 - 80.8   0.9 0.00 54.3   2.2 82.4   5.5 21.9   3.0
Spanish Springs NW 9/1/26 2310 58.1   11.2 35   5 30.4   5.6 7.1   2.3 WSW | 255 17.3   0.4 W | 271 0.00 12.8   0.1 73.4   1.2 0.00 55.9   6.9 78.0   7.5 30.8   2.5
Battle Mountain NW 9/1/26 2310 67.8   0.4 16   11 20.2   11.8 15.3   8.2 WSW | 245 26.7   17.8 SW | 233 0.00 9.1   0.0 80.9   0.4 0.00 61.0   17.4 83.7   5.5 28.2   0.1
Austin 2 9/1/26 2210 56.0   0.6 25   28 20.7   18.0 5.5   2.9 SSW | 210 8.3   3.4 SSW | 212 0.00 2.4   0.1 68.4   3.9 0.00 49.1   11.8 74.2   2.8 33.4   6.0
Elko-Osino 9/1/26 2310 59.2   3.3 22   16 20.4   16.0 4.6   0.7 WSW | 241 8.2   2.0 W | 277 0.00 1.6   0.0 79.6   0.8 0.00 47.3   6.7 82.5   4.2 33.5   0.6
Elko-Bill Fishpond 2 9/1/26 2310 70.2   8.7 15   22 20.1   14.8 8.3   4.9 S | 175 11.3   5.0 S | 181 0.00 3.5   0.0 70.2   0.2 0.00 46.4   4.6 79.8   0.1 29.3   5.3
Spring Creek SE 2 9/1/26 2310 62.2   1.6 18   19 18.2   18.8 10.9   6.0 SSW | 192 14.2   4.6 SSW | 196 0.00 0.3   0.1 72.5   1.0 0.00 48.8   6.0 80.0   4.1 36.0   11.6
Spring Creek NW 9/1/26 2310 67.6   5.3 15   23 17.6   18.7 9.6   6.2 SW | 223 16.6   10.7 SW | 229 0.00 2.3   0.1 74.6   0.4 0.00 52.0   4.1 80.1   3.7 37.1   12.0
Elko-Moleen 9/1/26 2310 59.0   12.8 28   0 25.6   10.6 5.7   0.2 ENE | 72 7.7   3.6 ENE | 67 0.00 6.6   0.1 81.1   2.1 0.00 55.8   14.3 83.7   0.7 37.6   7.7
Elko-West 9/1/26 2310 62.0   7.1 20   10 20.7   16.2 4.5   2.8 W | 265 8.6   4.1 WNW | 291 0.00 31.6   2.0 68.6   1.3 0.00 52.5   14.9 82.9   1.9 35.0   10.9
Elko-Adobe Creek 9/1/26 2310 64.0 22 23.9 12.1 SW | 231 16.0 SW | 234 0.00 18.8 70.9 0.00 59.0 76.0 36.1
Tuscarora SW 9/1/26 2310 56.0 28 23.2 2.0 SSW | 211 3.5 S | 176 0.00 7.1 77.9 0.00 55.7 79.5 35.6
Elko-Monument Peak 9/1/26 2310 53.4 24 17.8 4.0 SE | 143 6.3 SSE | 162 0.00 3.7 73.4 0.00 51.2 78.2 33.7
Max     94.0 100 51.9 35.0 - 44.8 - 0.00 43.0 101.8 0.00 86.0 104.4 56.5
Avg     60.5 31 26.6 8.9 - 15.9 - 0.00 7.2 75.4 - - - -
Min     41.6 10 10.6 0.5 - 1.7 - 0.00 0.0 0.0 0.00 41.2 60.4 1.7